Terminal Aerodrome Forecast
Issued by NWS

Home | Current Version | Previous Version | Text Only | Print | Product List | Glossary On
Versions: 1 2 3 4 5 6 7 8 9 10 11 12 13 14 15 16 17 18 19 20
000
FTUS44 KLZK 290900 AAA
TAFADF
TAF AMD
KADF 290902Z 2909/3006 00000KT P6SM VCSH SCT045
      TEMPO 2909/2910 -SHRA
     FM291100 18006KT P6SM SCT050 SCT100
     FM300000 17004KT P6SM VCTS SCT050CB BKN100=

USA.gov is the U.S. government's official web portal to all federal, state and local government web resources and services.